Terminal Aerodrome Forecast
Issued by NWS Lake Charles, LA

Home | Current Version | Previous Version | Text Only | Print | Product List | Glossary On
Versions: 1 2 3 4 5 6 7 8 9 10 11 12
000
FTUS44 KLCH 281700
TAFBPT
TAF
KBPT 281736Z 2818/2918 14012KT P6SM SKC
     FM282300 16008KT P6SM SCT035
     FM290200 17006KT P6SM SCT015
     FM291500 18014G20KT P6SM BKN025=

USA.gov is the U.S. government's official web portal to all federal, state and local government web resources and services.